Terminal Aerodrome Forecast
Issued by NWS Chicago, IL

Home | Current Version | Previous Version | Graphics & Text | Print | Product List | Glossary On
Versions: 1 2 3 4 5 6 7 8 9 10 11 12 13 14 15 16 17 18 19 20 21 22 23 24 25 26 27 28 29 30 31 32 33 34
000
FTUS43 KLOT 290500 CCA
TAFRFD
TAF COR
KRFD 290555Z 2906/3006 12007KT P6SM BKN070 OVC150
     FM290800 13004KT 4SM BR SCT050 BKN120
     FM291100 14007KT 6SM BR VCSH BKN050 OVC100
     FM291400 16008KT P6SM SCT020 BKN050
     FM291800 19013G20KT P6SM VCSH SCT060 BKN120 PROB30 2919/2923
      5SM TSRA BR BKN050CB
     FM300200 18010KT P6SM BKN050 OVC100=

USA.gov is the U.S. government's official web portal to all federal, state and local government web resources and services.